Onweerkansen (GFS)

Untitled Document





Vliegweer

[Source: ADDS]
METAR
EBBR 150250Z 13003KT 9999 BKN037 00/M05 Q1025 NOSIG =
EBBR 142300Z 1500/1606 13003KT 9999 BKN035 PROB30 TEMPO 1500/1506 4500 BR BECMG 1519/1521 16013KT 3500 -SN BR BKN008 PROB40 TEMPO 1521/1524 1200 SN VV002 PROB40 TEMPO 1523/1601 -FZRA BECMG 1601/1603 6000 -RA SCT008 BKN012 PROB40 TEMPO 1603/1606 2500 BR BKN004 BECMG 1604/1606 22008KT
TAF
EBBR 142300Z 1500/1606 13003KT 9999 BKN035 PROB30 TEMPO 1500/1506 4500 BR BECMG 1519/1521 16013KT 3500 -SN BR BKN008 PROB40 TEMPO 1521/1524 1200 SN VV002 PROB40 TEMPO 1523/1601 -FZRA BECMG 1601/1603 6000 -RA SCT008 BKN012 PROB40 TEMPO 1603/1606 2500 BR BKN004 BECMG 1604/1606 22008KT =

StormCell is een non profit organisatie zonder oogmerk tot sensatie